sensor_id;sensor_type;location;lat;lon;timestamp;P1;durP1;ratioP1;P2;durP2;ratioP2
80157;SDS011;74139;59.092;37.932;2023-11-18T00:01:24;9.50;;;4.88;;
80157;SDS011;74139;59.092;37.932;2023-11-18T00:03:50;9.65;;;4.80;;
80157;SDS011;74139;59.092;37.932;2023-11-18T00:06:16;12.02;;;4.68;;
80157;SDS011;74139;59.092;37.932;2023-11-18T00:08:41;10.13;;;4.40;;
80157;SDS011;74139;59.092;37.932;2023-11-18T00:11:07;8.80;;;4.47;;
80157;SDS011;74139;59.092;37.932;2023-11-18T00:16:00;7.88;;;4.10;;
80157;SDS011;74139;59.092;37.932;2023-11-18T00:18:26;8.35;;;4.22;;
80157;SDS011;74139;59.092;37.932;2023-11-18T00:20:51;8.68;;;4.03;;
80157;SDS011;74139;59.092;37.932;2023-11-18T00:23:17;9.13;;;4.15;;
80157;SDS011;74139;59.092;37.932;2023-11-18T00:25:43;7.60;;;3.90;;
80157;SDS011;74139;59.092;37.932;2023-11-18T00:28:10;10.55;;;3.83;;
80157;SDS011;74139;59.092;37.932;2023-11-18T00:30:37;8.15;;;3.50;;
80157;SDS011;74139;59.092;37.932;2023-11-18T00:33:03;7.63;;;3.42;;
80157;SDS011;74139;59.092;37.932;2023-11-18T00:35:29;6.43;;;3.17;;
80157;SDS011;74139;59.092;37.932;2023-11-18T00:37:57;7.07;;;3.40;;
80157;SDS011;74139;59.092;37.932;2023-11-18T00:42:49;4.95;;;2.63;;
80157;SDS011;74139;59.092;37.932;2023-11-18T00:45:15;6.50;;;3.05;;
80157;SDS011;74139;59.092;37.932;2023-11-18T00:47:41;6.65;;;3.17;;
80157;SDS011;74139;59.092;37.932;2023-11-18T00:50:07;5.47;;;2.70;;
80157;SDS011;74139;59.092;37.932;2023-11-18T00:52:33;5.85;;;2.42;;
80157;SDS011;74139;59.092;37.932;2023-11-18T00:54:59;5.13;;;2.28;;
80157;SDS011;74139;59.092;37.932;2023-11-18T00:57:26;5.93;;;2.50;;
80157;SDS011;74139;59.092;37.932;2023-11-18T00:59:52;4.47;;;1.98;;
80157;SDS011;74139;59.092;37.932;2023-11-18T01:02:18;5.50;;;2.88;;
80157;SDS011;74139;59.092;37.932;2023-11-18T01:04:44;4.22;;;2.05;;
80157;SDS011;74139;59.092;37.932;2023-11-18T01:07:11;5.10;;;1.95;;
80157;SDS011;74139;59.092;37.932;2023-11-18T01:09:37;3.13;;;1.75;;
80157;SDS011;74139;59.092;37.932;2023-11-18T01:14:31;4.63;;;1.73;;
80157;SDS011;74139;59.092;37.932;2023-11-18T01:16:57;2.78;;;1.40;;
80157;SDS011;74139;59.092;37.932;2023-11-18T01:19:23;2.90;;;1.65;;
80157;SDS011;74139;59.092;37.932;2023-11-18T01:21:49;3.45;;;1.40;;
80157;SDS011;74139;59.092;37.932;2023-11-18T01:24:15;3.15;;;1.40;;
80157;SDS011;74139;59.092;37.932;2023-11-18T01:26:41;3.03;;;1.33;;
80157;SDS011;74139;59.092;37.932;2023-11-18T01:29:07;1.90;;;1.15;;
80157;SDS011;74139;59.092;37.932;2023-11-18T01:31:33;2.53;;;1.25;;
80157;SDS011;74139;59.092;37.932;2023-11-18T01:33:59;2.65;;;1.20;;
80157;SDS011;74139;59.092;37.932;2023-11-18T01:36:25;2.70;;;1.48;;
80157;SDS011;74139;59.092;37.932;2023-11-18T01:38:51;1.58;;;1.05;;
80157;SDS011;74139;59.092;37.932;2023-11-18T01:41:16;2.63;;;1.08;;
80157;SDS011;74139;59.092;37.932;2023-11-18T01:43:47;2.97;;;1.08;;
80157;SDS011;74139;59.092;37.932;2023-11-18T01:46:13;2.05;;;0.93;;
80157;SDS011;74139;59.092;37.932;2023-11-18T01:48:42;1.58;;;0.82;;
80157;SDS011;74139;59.092;37.932;2023-11-18T01:51:08;2.47;;;0.93;;
80157;SDS011;74139;59.092;37.932;2023-11-18T01:53:38;3.25;;;0.90;;
80157;SDS011;74139;59.092;37.932;2023-11-18T01:56:05;2.63;;;1.02;;
80157;SDS011;74139;59.092;37.932;2023-11-18T01:58:32;1.30;;;0.70;;
80157;SDS011;74139;59.092;37.932;2023-11-18T02:00:58;2.13;;;1.08;;
80157;SDS011;74139;59.092;37.932;2023-11-18T02:03:25;0.88;;;0.70;;
80157;SDS011;74139;59.092;37.932;2023-11-18T02:05:52;1.45;;;0.80;;
80157;SDS011;74139;59.092;37.932;2023-11-18T02:08:18;0.98;;;0.60;;
80157;SDS011;74139;59.092;37.932;2023-11-18T02:10:48;2.22;;;0.80;;
80157;SDS011;74139;59.092;37.932;2023-11-18T02:15:45;1.55;;;0.70;;
80157;SDS011;74139;59.092;37.932;2023-11-18T02:18:11;2.00;;;0.70;;
80157;SDS011;74139;59.092;37.932;2023-11-18T02:20:38;0.85;;;0.45;;
80157;SDS011;74139;59.092;37.932;2023-11-18T02:23:04;1.00;;;0.60;;
80157;SDS011;74139;59.092;37.932;2023-11-18T02:25:33;1.33;;;0.73;;
80157;SDS011;74139;59.092;37.932;2023-11-18T02:28:00;1.23;;;0.70;;
80157;SDS011;74139;59.092;37.932;2023-11-18T02:30:26;1.48;;;0.80;;
80157;SDS011;74139;59.092;37.932;2023-11-18T02:33:01;1.67;;;0.85;;
80157;SDS011;74139;59.092;37.932;2023-11-18T02:35:52;0.88;;;0.50;;
80157;SDS011;74139;59.092;37.932;2023-11-18T02:38:18;2.45;;;0.60;;
80157;SDS011;74139;59.092;37.932;2023-11-18T02:40:45;0.82;;;0.52;;
80157;SDS011;74139;59.092;37.932;2023-11-18T02:43:12;1.15;;;0.50;;
80157;SDS011;74139;59.092;37.932;2023-11-18T02:45:39;0.75;;;0.50;;
80157;SDS011;74139;59.092;37.932;2023-11-18T02:48:05;0.80;;;0.40;;
80157;SDS011;74139;59.092;37.932;2023-11-18T02:50:32;1.42;;;0.50;;
80157;SDS011;74139;59.092;37.932;2023-11-18T02:52:58;1.33;;;0.50;;
80157;SDS011;74139;59.092;37.932;2023-11-18T02:55:24;2.15;;;0.57;;
80157;SDS011;74139;59.092;37.932;2023-11-18T02:57:51;1.48;;;0.73;;
80157;SDS011;74139;59.092;37.932;2023-11-18T03:00:17;1.58;;;0.47;;
80157;SDS011;74139;59.092;37.932;2023-11-18T03:02:54;1.20;;;0.52;;
80157;SDS011;74139;59.092;37.932;2023-11-18T03:05:20;1.08;;;0.50;;
80157;SDS011;74139;59.092;37.932;2023-11-18T03:07:47;1.25;;;0.50;;
80157;SDS011;74139;59.092;37.932;2023-11-18T03:10:16;1.50;;;0.40;;
80157;SDS011;74139;59.092;37.932;2023-11-18T03:12:51;1.17;;;0.70;;
80157;SDS011;74139;59.092;37.932;2023-11-18T03:15:20;1.02;;;0.50;;
80157;SDS011;74139;59.092;37.932;2023-11-18T03:17:47;0.73;;;0.47;;
80157;SDS011;74139;59.092;37.932;2023-11-18T03:20:14;1.17;;;0.30;;
80157;SDS011;74139;59.092;37.932;2023-11-18T03:22:43;1.48;;;0.43;;
80157;SDS011;74139;59.092;37.932;2023-11-18T03:25:09;0.65;;;0.45;;
80157;SDS011;74139;59.092;37.932;2023-11-18T03:27:35;1.27;;;0.50;;
80157;SDS011;74139;59.092;37.932;2023-11-18T03:30:01;2.15;;;0.40;;
80157;SDS011;74139;59.092;37.932;2023-11-18T03:32:28;0.40;;;0.30;;
80157;SDS011;74139;59.092;37.932;2023-11-18T03:34:54;1.58;;;0.35;;
80157;SDS011;74139;59.092;37.932;2023-11-18T03:37:20;1.48;;;0.40;;
80157;SDS011;74139;59.092;37.932;2023-11-18T03:39:48;0.60;;;0.40;;
80157;SDS011;74139;59.092;37.932;2023-11-18T03:42:14;1.45;;;0.60;;
80157;SDS011;74139;59.092;37.932;2023-11-18T03:44:41;0.80;;;0.40;;
80157;SDS011;74139;59.092;37.932;2023-11-18T03:47:07;0.63;;;0.47;;
80157;SDS011;74139;59.092;37.932;2023-11-18T03:49:33;1.65;;;0.57;;
80157;SDS011;74139;59.092;37.932;2023-11-18T03:51:59;1.13;;;0.45;;
80157;SDS011;74139;59.092;37.932;2023-11-18T03:54:25;0.93;;;0.40;;
80157;SDS011;74139;59.092;37.932;2023-11-18T03:56:52;1.02;;;0.50;;
80157;SDS011;74139;59.092;37.932;2023-11-18T03:59:20;0.90;;;0.55;;
80157;SDS011;74139;59.092;37.932;2023-11-18T04:01:46;2.03;;;0.50;;
80157;SDS011;74139;59.092;37.932;2023-11-18T04:04:14;0.30;;;0.20;;
80157;SDS011;74139;59.092;37.932;2023-11-18T04:06:42;0.73;;;0.38;;
80157;SDS011;74139;59.092;37.932;2023-11-18T04:09:08;0.88;;;0.40;;
80157;SDS011;74139;59.092;37.932;2023-11-18T04:11:35;0.82;;;0.47;;
80157;SDS011;74139;59.092;37.932;2023-11-18T04:14:01;0.30;;;0.30;;
80157;SDS011;74139;59.092;37.932;2023-11-18T04:16:29;0.60;;;0.40;;
80157;SDS011;74139;59.092;37.932;2023-11-18T04:18:55;0.70;;;0.50;;
80157;SDS011;74139;59.092;37.932;2023-11-18T04:21:21;1.10;;;0.40;;
80157;SDS011;74139;59.092;37.932;2023-11-18T04:23:47;0.77;;;0.32;;
80157;SDS011;74139;59.092;37.932;2023-11-18T04:26:13;0.80;;;0.40;;
80157;SDS011;74139;59.092;37.932;2023-11-18T04:28:39;0.77;;;0.50;;
80157;SDS011;74139;59.092;37.932;2023-11-18T04:31:05;0.73;;;0.47;;
80157;SDS011;74139;59.092;37.932;2023-11-18T04:33:32;1.67;;;0.63;;
80157;SDS011;74139;59.092;37.932;2023-11-18T04:35:59;0.98;;;0.57;;
80157;SDS011;74139;59.092;37.932;2023-11-18T04:38:25;0.65;;;0.40;;
80157;SDS011;74139;59.092;37.932;2023-11-18T04:40:54;0.40;;;0.30;;
80157;SDS011;74139;59.092;37.932;2023-11-18T04:43:20;0.28;;;0.20;;
80157;SDS011;74139;59.092;37.932;2023-11-18T04:45:46;0.50;;;0.30;;
80157;SDS011;74139;59.092;37.932;2023-11-18T04:48:12;0.45;;;0.43;;
80157;SDS011;74139;59.092;37.932;2023-11-18T04:50:39;0.93;;;0.40;;
80157;SDS011;74139;59.092;37.932;2023-11-18T04:53:05;2.08;;;0.57;;
80157;SDS011;74139;59.092;37.932;2023-11-18T04:55:34;1.10;;;0.35;;
80157;SDS011;74139;59.092;37.932;2023-11-18T05:00:26;0.43;;;0.40;;
80157;SDS011;74139;59.092;37.932;2023-11-18T05:02:53;0.73;;;0.35;;
80157;SDS011;74139;59.092;37.932;2023-11-18T05:05:20;0.68;;;0.40;;
80157;SDS011;74139;59.092;37.932;2023-11-18T05:07:47;1.10;;;0.40;;
80157;SDS011;74139;59.092;37.932;2023-11-18T05:10:13;0.88;;;0.40;;
80157;SDS011;74139;59.092;37.932;2023-11-18T05:12:39;0.38;;;0.38;;
80157;SDS011;74139;59.092;37.932;2023-11-18T05:15:06;0.60;;;0.40;;
80157;SDS011;74139;59.092;37.932;2023-11-18T05:17:34;0.65;;;0.28;;
80157;SDS011;74139;59.092;37.932;2023-11-18T05:20:04;0.47;;;0.30;;
80157;SDS011;74139;59.092;37.932;2023-11-18T05:22:32;0.77;;;0.40;;
80157;SDS011;74139;59.092;37.932;2023-11-18T05:24:58;0.35;;;0.30;;
80157;SDS011;74139;59.092;37.932;2023-11-18T05:27:24;0.47;;;0.28;;
80157;SDS011;74139;59.092;37.932;2023-11-18T05:29:50;0.60;;;0.30;;
80157;SDS011;74139;59.092;37.932;2023-11-18T05:32:20;1.15;;;0.50;;
80157;SDS011;74139;59.092;37.932;2023-11-18T05:34:46;0.68;;;0.45;;
80157;SDS011;74139;59.092;37.932;2023-11-18T05:37:12;1.20;;;0.50;;
80157;SDS011;74139;59.092;37.932;2023-11-18T05:39:38;0.80;;;0.30;;
80157;SDS011;74139;59.092;37.932;2023-11-18T05:42:09;1.85;;;0.40;;
80157;SDS011;74139;59.092;37.932;2023-11-18T05:44:36;0.60;;;0.40;;
80157;SDS011;74139;59.092;37.932;2023-11-18T05:47:05;0.82;;;0.47;;
80157;SDS011;74139;59.092;37.932;2023-11-18T05:49:35;1.55;;;0.40;;
80157;SDS011;74139;59.092;37.932;2023-11-18T05:52:01;0.80;;;0.40;;
80157;SDS011;74139;59.092;37.932;2023-11-18T05:54:27;0.73;;;0.28;;
80157;SDS011;74139;59.092;37.932;2023-11-18T05:56:53;0.60;;;0.40;;
80157;SDS011;74139;59.092;37.932;2023-11-18T05:59:22;0.32;;;0.30;;
80157;SDS011;74139;59.092;37.932;2023-11-18T06:01:49;1.42;;;0.47;;
80157;SDS011;74139;59.092;37.932;2023-11-18T06:04:15;0.45;;;0.40;;
80157;SDS011;74139;59.092;37.932;2023-11-18T06:06:41;1.13;;;0.60;;
80157;SDS011;74139;59.092;37.932;2023-11-18T06:09:07;1.52;;;0.50;;
80157;SDS011;74139;59.092;37.932;2023-11-18T06:11:48;0.50;;;0.22;;
80157;SDS011;74139;59.092;37.932;2023-11-18T06:14:15;1.10;;;0.43;;
80157;SDS011;74139;59.092;37.932;2023-11-18T06:16:42;1.05;;;0.40;;
80157;SDS011;74139;59.092;37.932;2023-11-18T06:19:08;1.02;;;0.40;;
80157;SDS011;74139;59.092;37.932;2023-11-18T06:21:35;0.55;;;0.30;;
80157;SDS011;74139;59.092;37.932;2023-11-18T06:24:02;1.75;;;0.60;;
80157;SDS011;74139;59.092;37.932;2023-11-18T06:26:29;0.60;;;0.40;;
80157;SDS011;74139;59.092;37.932;2023-11-18T06:28:55;1.20;;;0.50;;
80157;SDS011;74139;59.092;37.932;2023-11-18T06:31:21;0.90;;;0.43;;
80157;SDS011;74139;59.092;37.932;2023-11-18T06:33:49;0.80;;;0.50;;
80157;SDS011;74139;59.092;37.932;2023-11-18T06:38:45;1.80;;;0.40;;
80157;SDS011;74139;59.092;37.932;2023-11-18T06:41:11;1.10;;;0.60;;
80157;SDS011;74139;59.092;37.932;2023-11-18T06:43:42;0.95;;;0.47;;
80157;SDS011;74139;59.092;37.932;2023-11-18T06:46:23;0.80;;;0.28;;
80157;SDS011;74139;59.092;37.932;2023-11-18T06:48:49;0.60;;;0.40;;
80157;SDS011;74139;59.092;37.932;2023-11-18T06:51:15;1.27;;;0.52;;
80157;SDS011;74139;59.092;37.932;2023-11-18T06:53:42;1.23;;;0.57;;
80157;SDS011;74139;59.092;37.932;2023-11-18T06:56:10;0.95;;;0.50;;
80157;SDS011;74139;59.092;37.932;2023-11-18T06:58:39;1.20;;;0.55;;
80157;SDS011;74139;59.092;37.932;2023-11-18T07:01:06;1.50;;;0.45;;
80157;SDS011;74139;59.092;37.932;2023-11-18T07:03:32;0.95;;;0.60;;
80157;SDS011;74139;59.092;37.932;2023-11-18T07:05:58;0.63;;;0.50;;
80157;SDS011;74139;59.092;37.932;2023-11-18T07:08:24;0.70;;;0.50;;
80157;SDS011;74139;59.092;37.932;2023-11-18T07:10:50;1.33;;;0.60;;
80157;SDS011;74139;59.092;37.932;2023-11-18T07:13:16;1.73;;;0.60;;
80157;SDS011;74139;59.092;37.932;2023-11-18T07:15:42;1.40;;;0.73;;
80157;SDS011;74139;59.092;37.932;2023-11-18T07:18:08;1.00;;;0.57;;
80157;SDS011;74139;59.092;37.932;2023-11-18T07:20:35;1.05;;;0.80;;
80157;SDS011;74139;59.092;37.932;2023-11-18T07:23:01;0.43;;;0.20;;
80157;SDS011;74139;59.092;37.932;2023-11-18T07:25:27;0.95;;;0.47;;
80157;SDS011;74139;59.092;37.932;2023-11-18T07:27:53;0.85;;;0.47;;
80157;SDS011;74139;59.092;37.932;2023-11-18T07:30:19;1.50;;;0.60;;
80157;SDS011;74139;59.092;37.932;2023-11-18T07:32:45;0.70;;;0.50;;
80157;SDS011;74139;59.092;37.932;2023-11-18T07:35:11;0.55;;;0.32;;
80157;SDS011;74139;59.092;37.932;2023-11-18T07:37:37;0.65;;;0.40;;
80157;SDS011;74139;59.092;37.932;2023-11-18T07:40:04;0.63;;;0.32;;
80157;SDS011;74139;59.092;37.932;2023-11-18T07:42:31;0.80;;;0.30;;
80157;SDS011;74139;59.092;37.932;2023-11-18T07:45:00;0.95;;;0.47;;
80157;SDS011;74139;59.092;37.932;2023-11-18T07:47:32;0.77;;;0.40;;
80157;SDS011;74139;59.092;37.932;2023-11-18T07:49:59;1.27;;;0.60;;
80157;SDS011;74139;59.092;37.932;2023-11-18T07:52:25;0.80;;;0.40;;
80157;SDS011;74139;59.092;37.932;2023-11-18T07:54:53;0.70;;;0.50;;
80157;SDS011;74139;59.092;37.932;2023-11-18T07:57:19;160.10;;;81.35;;
80157;SDS011;74139;59.092;37.932;2023-11-18T07:59:45;123.75;;;59.92;;
80157;SDS011;74139;59.092;37.932;2023-11-18T08:02:11;96.75;;;46.75;;
80157;SDS011;74139;59.092;37.932;2023-11-18T08:04:40;86.97;;;42.65;;
80157;SDS011;74139;59.092;37.932;2023-11-18T08:07:06;83.43;;;39.75;;
80157;SDS011;74139;59.092;37.932;2023-11-18T08:09:33;77.78;;;37.80;;
80157;SDS011;74139;59.092;37.932;2023-11-18T08:11:59;64.97;;;34.08;;
80157;SDS011;74139;59.092;37.932;2023-11-18T08:14:24;65.53;;;31.70;;
80157;SDS011;74139;59.092;37.932;2023-11-18T08:16:50;56.83;;;27.45;;
80157;SDS011;74139;59.092;37.932;2023-11-18T08:19:16;48.95;;;24.45;;
80157;SDS011;74139;59.092;37.932;2023-11-18T08:21:43;44.33;;;21.98;;
80157;SDS011;74139;59.092;37.932;2023-11-18T08:24:08;43.00;;;20.90;;
80157;SDS011;74139;59.092;37.932;2023-11-18T08:26:35;34.85;;;17.05;;
80157;SDS011;74139;59.092;37.932;2023-11-18T08:31:27;34.35;;;15.60;;
80157;SDS011;74139;59.092;37.932;2023-11-18T08:33:53;29.02;;;13.82;;
80157;SDS011;74139;59.092;37.932;2023-11-18T08:36:23;29.08;;;13.35;;
80157;SDS011;74139;59.092;37.932;2023-11-18T08:38:52;21.23;;;11.73;;
80157;SDS011;74139;59.092;37.932;2023-11-18T08:41:17;21.23;;;10.32;;
80157;SDS011;74139;59.092;37.932;2023-11-18T08:43:45;19.83;;;9.35;;
80157;SDS011;74139;59.092;37.932;2023-11-18T08:46:15;19.92;;;9.07;;
80157;SDS011;74139;59.092;37.932;2023-11-18T08:48:41;17.65;;;7.88;;
80157;SDS011;74139;59.092;37.932;2023-11-18T08:51:07;16.52;;;7.47;;
80157;SDS011;74139;59.092;37.932;2023-11-18T08:53:34;18.42;;;7.40;;
80157;SDS011;74139;59.092;37.932;2023-11-18T08:56:09;12.18;;;6.45;;
80157;SDS011;74139;59.092;37.932;2023-11-18T08:58:42;11.93;;;5.90;;
80157;SDS011;74139;59.092;37.932;2023-11-18T09:01:10;11.40;;;5.47;;
80157;SDS011;74139;59.092;37.932;2023-11-18T09:03:39;9.93;;;5.15;;
80157;SDS011;74139;59.092;37.932;2023-11-18T09:06:09;10.38;;;4.47;;
80157;SDS011;74139;59.092;37.932;2023-11-18T09:08:45;8.07;;;3.97;;
80157;SDS011;74139;59.092;37.932;2023-11-18T09:11:12;7.72;;;3.85;;
80157;SDS011;74139;59.092;37.932;2023-11-18T09:13:42;7.28;;;3.70;;
80157;SDS011;74139;59.092;37.932;2023-11-18T09:16:08;5.15;;;3.42;;
80157;SDS011;74139;59.092;37.932;2023-11-18T09:18:35;6.03;;;3.20;;
80157;SDS011;74139;59.092;37.932;2023-11-18T09:21:01;5.25;;;3.08;;
80157;SDS011;74139;59.092;37.932;2023-11-18T09:23:29;5.10;;;2.47;;
80157;SDS011;74139;59.092;37.932;2023-11-18T09:25:55;4.82;;;2.55;;
80157;SDS011;74139;59.092;37.932;2023-11-18T09:28:21;4.95;;;2.65;;
80157;SDS011;74139;59.092;37.932;2023-11-18T09:30:50;3.92;;;2.33;;
80157;SDS011;74139;59.092;37.932;2023-11-18T09:33:19;3.13;;;2.00;;
80157;SDS011;74139;59.092;37.932;2023-11-18T09:35:52;4.35;;;1.90;;
80157;SDS011;74139;59.092;37.932;2023-11-18T09:38:21;2.72;;;1.48;;
80157;SDS011;74139;59.092;37.932;2023-11-18T09:40:47;2.85;;;1.48;;
80157;SDS011;74139;59.092;37.932;2023-11-18T09:43:14;3.10;;;1.30;;
80157;SDS011;74139;59.092;37.932;2023-11-18T09:45:43;3.10;;;1.38;;
80157;SDS011;74139;59.092;37.932;2023-11-18T09:48:11;1.90;;;1.38;;
80157;SDS011;74139;59.092;37.932;2023-11-18T09:50:43;2.13;;;1.23;;
80157;SDS011;74139;59.092;37.932;2023-11-18T09:53:12;2.55;;;1.15;;
80157;SDS011;74139;59.092;37.932;2023-11-18T09:55:42;1.80;;;1.25;;
80157;SDS011;74139;59.092;37.932;2023-11-18T09:58:13;1.50;;;0.90;;
80157;SDS011;74139;59.092;37.932;2023-11-18T10:00:41;1.08;;;0.77;;
80157;SDS011;74139;59.092;37.932;2023-11-18T10:03:07;1.80;;;0.82;;
80157;SDS011;74139;59.092;37.932;2023-11-18T10:05:35;1.95;;;0.77;;
80157;SDS011;74139;59.092;37.932;2023-11-18T10:08:04;1.55;;;0.90;;
80157;SDS011;74139;59.092;37.932;2023-11-18T10:10:33;1.65;;;0.77;;
80157;SDS011;74139;59.092;37.932;2023-11-18T10:13:02;0.70;;;0.45;;
80157;SDS011;74139;59.092;37.932;2023-11-18T10:15:30;1.65;;;0.70;;
80157;SDS011;74139;59.092;37.932;2023-11-18T10:17:57;1.40;;;0.80;;
80157;SDS011;74139;59.092;37.932;2023-11-18T10:23:10;1.02;;;0.70;;
80157;SDS011;74139;59.092;37.932;2023-11-18T10:28:07;1.38;;;0.60;;
80157;SDS011;74139;59.092;37.932;2023-11-18T10:30:44;1.13;;;0.60;;
80157;SDS011;74139;59.092;37.932;2023-11-18T10:33:15;1.02;;;0.60;;
80157;SDS011;74139;59.092;37.932;2023-11-18T10:35:49;1.27;;;0.50;;
80157;SDS011;74139;59.092;37.932;2023-11-18T10:38:17;0.90;;;0.50;;
80157;SDS011;74139;59.092;37.932;2023-11-18T10:40:42;1.50;;;0.77;;
80157;SDS011;74139;59.092;37.932;2023-11-18T10:43:09;0.38;;;0.30;;
80157;SDS011;74139;59.092;37.932;2023-11-18T10:45:36;0.93;;;0.60;;
80157;SDS011;74139;59.092;37.932;2023-11-18T10:48:06;1.05;;;0.68;;
80157;SDS011;74139;59.092;37.932;2023-11-18T10:50:32;1.33;;;0.60;;
80157;SDS011;74139;59.092;37.932;2023-11-18T10:53:01;1.52;;;0.50;;
80157;SDS011;74139;59.092;37.932;2023-11-18T10:55:38;0.90;;;0.60;;
80157;SDS011;74139;59.092;37.932;2023-11-18T10:58:05;0.57;;;0.43;;
80157;SDS011;74139;59.092;37.932;2023-11-18T11:00:53;1.15;;;0.40;;
80157;SDS011;74139;59.092;37.932;2023-11-18T11:03:21;0.50;;;0.47;;
80157;SDS011;74139;59.092;37.932;2023-11-18T11:05:52;0.60;;;0.40;;
80157;SDS011;74139;59.092;37.932;2023-11-18T11:08:19;0.77;;;0.40;;
80157;SDS011;74139;59.092;37.932;2023-11-18T11:10:46;0.60;;;0.30;;
80157;SDS011;74139;59.092;37.932;2023-11-18T11:13:14;0.57;;;0.50;;
80157;SDS011;74139;59.092;37.932;2023-11-18T11:15:43;0.30;;;0.30;;
80157;SDS011;74139;59.092;37.932;2023-11-18T11:18:18;0.70;;;0.40;;
80157;SDS011;74139;59.092;37.932;2023-11-18T11:25:55;1.20;;;0.38;;
80157;SDS011;74139;59.092;37.932;2023-11-18T11:28:22;0.95;;;0.30;;
80157;SDS011;74139;59.092;37.932;2023-11-18T11:33:18;0.80;;;0.50;;
80157;SDS011;74139;59.092;37.932;2023-11-18T11:35:48;1.15;;;0.60;;
80157;SDS011;74139;59.092;37.932;2023-11-18T11:38:14;0.68;;;0.47;;
80157;SDS011;74139;59.092;37.932;2023-11-18T11:40:42;1.23;;;0.60;;
80157;SDS011;74139;59.092;37.932;2023-11-18T11:43:09;1.38;;;0.65;;
80157;SDS011;74139;59.092;37.932;2023-11-18T11:45:37;1.17;;;0.45;;
80157;SDS011;74139;59.092;37.932;2023-11-18T11:48:05;0.95;;;0.60;;
80157;SDS011;74139;59.092;37.932;2023-11-18T11:53:54;1.45;;;0.60;;
80157;SDS011;74139;59.092;37.932;2023-11-18T11:56:37;0.45;;;0.38;;
80157;SDS011;74139;59.092;37.932;2023-11-18T11:59:03;3.05;;;0.50;;
80157;SDS011;74139;59.092;37.932;2023-11-18T12:01:35;0.30;;;0.30;;
80157;SDS011;74139;59.092;37.932;2023-11-18T12:04:03;1.23;;;0.30;;
80157;SDS011;74139;59.092;37.932;2023-11-18T12:06:33;0.68;;;0.20;;
80157;SDS011;74139;59.092;37.932;2023-11-18T12:09:01;0.43;;;0.35;;
80157;SDS011;74139;59.092;37.932;2023-11-18T12:11:37;0.70;;;0.30;;
80157;SDS011;74139;59.092;37.932;2023-11-18T12:14:11;1.15;;;0.50;;
80157;SDS011;74139;59.092;37.932;2023-11-18T12:16:58;1.65;;;0.40;;
80157;SDS011;74139;59.092;37.932;2023-11-18T12:19:34;0.50;;;0.43;;
80157;SDS011;74139;59.092;37.932;2023-11-18T12:30:03;0.40;;;0.30;;
80157;SDS011;74139;59.092;37.932;2023-11-18T12:35:20;1.02;;;0.50;;
80157;SDS011;74139;59.092;37.932;2023-11-18T12:43:16;0.20;;;0.20;;
80157;SDS011;74139;59.092;37.932;2023-11-18T12:45:50;1.45;;;0.43;;
80157;SDS011;74139;59.092;37.932;2023-11-18T12:48:25;0.73;;;0.38;;
80157;SDS011;74139;59.092;37.932;2023-11-18T12:50:58;0.75;;;0.30;;
80157;SDS011;74139;59.092;37.932;2023-11-18T12:55:50;0.47;;;0.47;;
80157;SDS011;74139;59.092;37.932;2023-11-18T12:58:18;0.70;;;0.47;;
80157;SDS011;74139;59.092;37.932;2023-11-18T13:00:44;0.40;;;0.30;;
80157;SDS011;74139;59.092;37.932;2023-11-18T13:03:11;0.43;;;0.40;;
80157;SDS011;74139;59.092;37.932;2023-11-18T13:05:41;0.90;;;0.43;;
80157;SDS011;74139;59.092;37.932;2023-11-18T13:08:09;0.63;;;0.30;;
80157;SDS011;74139;59.092;37.932;2023-11-18T13:10:35;0.73;;;0.30;;
80157;SDS011;74139;59.092;37.932;2023-11-18T13:13:02;0.75;;;0.50;;
80157;SDS011;74139;59.092;37.932;2023-11-18T13:15:30;0.30;;;0.30;;
80157;SDS011;74139;59.092;37.932;2023-11-18T13:18:00;0.52;;;0.38;;
80157;SDS011;74139;59.092;37.932;2023-11-18T13:20:26;0.40;;;0.30;;
80157;SDS011;74139;59.092;37.932;2023-11-18T13:22:54;0.68;;;0.40;;
80157;SDS011;74139;59.092;37.932;2023-11-18T13:25:22;0.85;;;0.40;;
80157;SDS011;74139;59.092;37.932;2023-11-18T13:27:48;0.57;;;0.30;;
80157;SDS011;74139;59.092;37.932;2023-11-18T13:30:15;1.27;;;0.40;;
80157;SDS011;74139;59.092;37.932;2023-11-18T13:32:43;0.47;;;0.30;;
80157;SDS011;74139;59.092;37.932;2023-11-18T13:35:09;0.77;;;0.40;;
80157;SDS011;74139;59.092;37.932;2023-11-18T13:37:39;0.73;;;0.38;;
80157;SDS011;74139;59.092;37.932;2023-11-18T13:40:07;0.73;;;0.30;;
80157;SDS011;74139;59.092;37.932;2023-11-18T13:42:33;0.57;;;0.28;;
80157;SDS011;74139;59.092;37.932;2023-11-18T13:45:05;0.57;;;0.25;;
80157;SDS011;74139;59.092;37.932;2023-11-18T13:47:37;0.40;;;0.30;;
80157;SDS011;74139;59.092;37.932;2023-11-18T13:50:07;1.58;;;0.30;;
80157;SDS011;74139;59.092;37.932;2023-11-18T13:52:34;0.55;;;0.30;;
80157;SDS011;74139;59.092;37.932;2023-11-18T13:55:00;0.40;;;0.30;;
80157;SDS011;74139;59.092;37.932;2023-11-18T13:57:26;0.73;;;0.40;;
80157;SDS011;74139;59.092;37.932;2023-11-18T13:59:53;0.63;;;0.30;;
80157;SDS011;74139;59.092;37.932;2023-11-18T14:02:20;1.67;;;0.50;;
80157;SDS011;74139;59.092;37.932;2023-11-18T14:04:47;0.35;;;0.20;;
80157;SDS011;74139;59.092;37.932;2023-11-18T14:07:14;0.82;;;0.40;;
80157;SDS011;74139;59.092;37.932;2023-11-18T14:09:46;1.08;;;0.35;;
80157;SDS011;74139;59.092;37.932;2023-11-18T14:12:12;0.43;;;0.20;;
80157;SDS011;74139;59.092;37.932;2023-11-18T14:14:39;0.32;;;0.30;;
80157;SDS011;74139;59.092;37.932;2023-11-18T14:17:05;0.40;;;0.25;;
80157;SDS011;74139;59.092;37.932;2023-11-18T14:19:32;0.40;;;0.30;;
80157;SDS011;74139;59.092;37.932;2023-11-18T14:22:00;1.02;;;0.40;;
80157;SDS011;74139;59.092;37.932;2023-11-18T14:24:26;1.25;;;0.40;;
80157;SDS011;74139;59.092;37.932;2023-11-18T14:26:57;1.05;;;0.40;;
80157;SDS011;74139;59.092;37.932;2023-11-18T14:29:24;0.50;;;0.30;;
80157;SDS011;74139;59.092;37.932;2023-11-18T14:31:50;0.25;;;0.20;;
80157;SDS011;74139;59.092;37.932;2023-11-18T14:34:16;0.88;;;0.47;;
80157;SDS011;74139;59.092;37.932;2023-11-18T14:36:42;1.17;;;0.40;;
80157;SDS011;74139;59.092;37.932;2023-11-18T14:39:08;0.20;;;0.20;;
80157;SDS011;74139;59.092;37.932;2023-11-18T14:41:36;0.52;;;0.30;;
80157;SDS011;74139;59.092;37.932;2023-11-18T14:44:02;0.50;;;0.45;;
80157;SDS011;74139;59.092;37.932;2023-11-18T14:46:33;0.82;;;0.40;;
80157;SDS011;74139;59.092;37.932;2023-11-18T14:48:59;0.50;;;0.28;;
80157;SDS011;74139;59.092;37.932;2023-11-18T14:51:25;0.63;;;0.38;;
80157;SDS011;74139;59.092;37.932;2023-11-18T14:53:51;0.43;;;0.30;;
80157;SDS011;74139;59.092;37.932;2023-11-18T14:56:18;0.82;;;0.32;;
80157;SDS011;74139;59.092;37.932;2023-11-18T14:58:44;0.57;;;0.40;;
80157;SDS011;74139;59.092;37.932;2023-11-18T15:01:15;0.52;;;0.30;;
80157;SDS011;74139;59.092;37.932;2023-11-18T15:03:41;0.63;;;0.30;;
80157;SDS011;74139;59.092;37.932;2023-11-18T15:06:07;0.80;;;0.40;;
80157;SDS011;74139;59.092;37.932;2023-11-18T15:08:35;0.63;;;0.20;;
80157;SDS011;74139;59.092;37.932;2023-11-18T15:11:01;0.98;;;0.57;;
80157;SDS011;74139;59.092;37.932;2023-11-18T15:13:28;0.90;;;0.28;;
80157;SDS011;74139;59.092;37.932;2023-11-18T15:15:54;0.50;;;0.30;;
80157;SDS011;74139;59.092;37.932;2023-11-18T15:20:47;0.32;;;0.30;;
80157;SDS011;74139;59.092;37.932;2023-11-18T15:23:13;0.40;;;0.28;;
80157;SDS011;74139;59.092;37.932;2023-11-18T15:25:39;0.98;;;0.45;;
80157;SDS011;74139;59.092;37.932;2023-11-18T15:28:05;1.27;;;0.63;;
80157;SDS011;74139;59.092;37.932;2023-11-18T15:30:39;1.70;;;0.73;;